createdAt,value
2022-11-06T00:04:55.040Z,3.37
2022-11-06T00:09:59.920Z,3.37
2022-11-06T00:15:03.352Z,3.30
2022-11-06T00:20:07.986Z,4.03
2022-11-06T00:25:12.839Z,3.33
2022-11-06T00:30:16.052Z,3.30
2022-11-06T00:35:19.593Z,3.60
2022-11-06T00:40:24.114Z,3.43
2022-11-06T00:45:27.171Z,3.03
2022-11-06T00:50:30.333Z,3.03
2022-11-06T00:55:35.117Z,2.93
2022-11-06T01:00:38.401Z,2.87
2022-11-06T01:05:41.972Z,3.10
2022-11-06T01:10:46.697Z,2.57
2022-11-06T01:15:49.698Z,2.80
2022-11-06T01:20:53.296Z,2.87
2022-11-06T01:26:02.241Z,2.80
2022-11-06T01:31:06.796Z,2.97
2022-11-06T01:36:11.227Z,2.80
2022-11-06T01:41:17.000Z,2.70
2022-11-06T01:46:21.993Z,2.60
2022-11-06T01:51:28.787Z,2.87
2022-11-06T01:56:33.623Z,2.77
2022-11-06T02:01:37.018Z,2.80
2022-11-06T02:06:41.147Z,2.77
2022-11-06T02:11:48.714Z,2.67
2022-11-06T02:16:55.873Z,2.60
2022-11-06T02:22:22.562Z,2.83
2022-11-06T02:27:29.975Z,2.47
2022-11-06T02:32:39.130Z,2.67
2022-11-06T02:37:46.584Z,2.20
2022-11-06T02:42:55.230Z,2.70
2022-11-06T02:48:02.635Z,2.40
2022-11-06T02:53:08.191Z,2.67
2022-11-06T02:58:17.529Z,2.80
2022-11-06T03:03:25.503Z,2.20
2022-11-06T03:08:35.960Z,2.33
2022-11-06T03:13:50.900Z,2.27
2022-11-06T03:18:59.789Z,2.00
2022-11-06T03:24:08.949Z,2.90
2022-11-06T03:29:18.618Z,2.40
2022-11-06T03:34:29.896Z,2.10
2022-11-06T03:39:36.533Z,2.60
2022-11-06T03:44:45.244Z,2.40
2022-11-06T03:49:53.033Z,2.33
2022-11-06T03:54:59.783Z,1.83
2022-11-06T04:00:09.304Z,2.00
2022-11-06T04:05:21.213Z,2.40
2022-11-06T04:10:38.332Z,2.30
2022-11-06T04:15:49.299Z,2.57
2022-11-06T04:21:25.143Z,2.07
2022-11-06T04:26:39.861Z,2.93
2022-11-06T04:31:56.285Z,2.57
2022-11-06T04:37:07.613Z,2.40
2022-11-06T04:42:18.979Z,2.03
2022-11-06T04:47:25.197Z,2.23
2022-11-06T04:52:29.969Z,2.00
2022-11-06T04:57:33.368Z,1.97
2022-11-06T05:02:38.072Z,1.77
2022-11-06T05:07:41.162Z,1.80
2022-11-06T05:12:44.304Z,2.33
2022-11-06T05:17:48.847Z,2.20
2022-11-06T05:23:01.292Z,2.30
2022-11-06T05:28:07.232Z,1.70
2022-11-06T05:33:11.991Z,2.17
2022-11-06T05:38:15.743Z,2.57
2022-11-06T05:43:18.894Z,2.10
2022-11-06T05:48:23.416Z,2.07
2022-11-06T05:53:26.391Z,1.60
2022-11-06T05:58:29.745Z,2.23
2022-11-06T06:03:34.211Z,2.33
2022-11-06T06:08:37.460Z,2.00
2022-11-06T06:13:40.696Z,1.80
2022-11-06T06:18:45.257Z,2.07
2022-11-06T06:23:48.295Z,2.40
2022-11-06T06:28:51.466Z,1.90
2022-11-06T06:33:56.066Z,2.20
2022-11-06T06:38:59.178Z,2.30
2022-11-06T06:44:02.366Z,3.03
2022-11-06T06:49:07.088Z,2.43
2022-11-06T06:54:10.662Z,2.13
2022-11-06T06:59:14.174Z,2.00
2022-11-06T07:04:18.968Z,2.30
2022-11-06T07:09:22.086Z,2.83
2022-11-06T07:14:25.219Z,2.33
2022-11-06T07:19:30.094Z,2.30
2022-11-06T07:24:33.159Z,2.43
2022-11-06T07:29:36.261Z,2.37
2022-11-06T07:34:40.732Z,2.10
2022-11-06T07:39:43.874Z,2.17
2022-11-06T07:44:47.197Z,2.13
2022-11-06T07:49:52.082Z,1.90
2022-11-06T07:54:55.251Z,2.03
2022-11-06T07:59:58.280Z,3.00
2022-11-06T08:05:03.106Z,2.43
2022-11-06T08:10:07.749Z,2.47
2022-11-06T08:15:11.829Z,2.50
2022-11-06T08:20:16.409Z,2.43
2022-11-06T08:25:19.712Z,2.00
2022-11-06T08:30:26.267Z,1.77
2022-11-06T08:35:31.058Z,2.37
2022-11-06T08:40:34.947Z,1.87
2022-11-06T08:45:39.144Z,2.30
2022-11-06T08:50:43.795Z,1.90
2022-11-06T08:55:47.058Z,1.67
2022-11-06T09:00:50.654Z,2.53
2022-11-06T09:05:55.669Z,2.13
2022-11-06T09:10:59.376Z,2.30
2022-11-06T09:16:02.590Z,2.50
2022-11-06T09:21:07.739Z,2.00
2022-11-06T09:26:10.995Z,1.67
2022-11-06T09:31:14.270Z,1.47
2022-11-06T09:36:19.299Z,2.27
2022-11-06T09:41:34.873Z,2.33
2022-11-06T09:46:43.746Z,2.00
2022-11-06T09:51:54.710Z,1.80
2022-11-06T09:57:03.386Z,1.67
2022-11-06T10:02:24.226Z,1.83
2022-11-06T10:07:31.568Z,1.77
2022-11-06T10:12:56.157Z,1.57
2022-11-06T10:18:07.950Z,1.97
2022-11-06T10:23:20.738Z,1.90
2022-11-06T10:28:48.236Z,2.27
2022-11-06T10:33:59.650Z,2.10
2022-11-06T10:39:06.770Z,2.13
2022-11-06T10:44:16.634Z,2.63
2022-11-06T10:49:29.685Z,1.70
2022-11-06T10:54:47.775Z,1.60
2022-11-06T10:59:51.626Z,1.70
2022-11-06T11:04:58.130Z,1.57
2022-11-06T11:10:28.077Z,1.90
2022-11-06T11:15:35.874Z,1.93
2022-11-06T11:20:40.940Z,1.47
2022-11-06T11:25:48.096Z,2.23
2022-11-06T11:31:06.136Z,1.57
2022-11-06T11:36:11.561Z,2.20
2022-11-06T11:41:24.000Z,2.60
2022-11-06T11:46:27.967Z,2.50
2022-11-06T11:51:36.253Z,2.10
2022-11-06T11:57:04.209Z,2.10
2022-11-06T12:02:22.147Z,3.20
2022-11-06T12:07:33.310Z,1.73
2022-11-06T12:12:38.415Z,1.90
2022-11-06T12:17:44.261Z,2.10
2022-11-06T12:22:49.172Z,2.10
2022-11-06T12:27:56.582Z,1.50
2022-11-06T12:33:06.034Z,2.07
2022-11-06T12:38:19.035Z,1.50
2022-11-06T12:43:30.645Z,1.87
2022-11-06T12:48:51.643Z,2.33
2022-11-06T12:54:11.241Z,1.80
2022-11-06T12:59:31.399Z,1.90
2022-11-06T13:04:42.666Z,2.07
2022-11-06T13:09:54.500Z,2.30
2022-11-06T13:15:10.229Z,2.27
2022-11-06T13:20:25.212Z,2.00
2022-11-06T13:25:39.730Z,2.63
2022-11-06T13:30:46.221Z,1.90
2022-11-06T13:35:49.664Z,2.47
2022-11-06T13:41:03.303Z,2.27
2022-11-06T13:46:14.996Z,1.80
2022-11-06T13:51:27.605Z,1.60
2022-11-06T13:56:48.494Z,2.30
2022-11-06T14:02:02.505Z,2.37
2022-11-06T14:07:08.600Z,2.50
2022-11-06T14:12:18.517Z,1.80
2022-11-06T14:17:25.333Z,2.00
2022-11-06T14:22:30.912Z,2.07
2022-11-06T14:28:07.338Z,2.07
2022-11-06T14:33:34.063Z,3.10
2022-11-06T14:38:39.281Z,2.10
2022-11-06T14:43:52.310Z,2.30
2022-11-06T14:49:10.061Z,2.07
2022-11-06T14:54:25.299Z,2.17
2022-11-06T14:59:35.489Z,2.40
2022-11-06T15:04:45.486Z,1.77
2022-11-06T15:09:50.024Z,2.10
2022-11-06T15:15:03.780Z,2.60
2022-11-06T15:20:24.665Z,2.30
2022-11-06T15:25:30.158Z,1.97
2022-11-06T15:30:42.229Z,1.80
2022-11-06T15:35:49.767Z,1.80
2022-11-06T15:41:07.672Z,1.57
2022-11-06T15:52:50.400Z,1.90
2022-11-06T15:57:55.728Z,2.57
2022-11-06T16:03:02.815Z,2.70
2022-11-06T16:08:07.885Z,2.40
2022-11-06T16:13:14.640Z,2.10
2022-11-06T16:18:22.817Z,2.07
2022-11-06T16:23:36.270Z,2.27
2022-11-06T16:28:48.212Z,1.90
2022-11-06T16:33:58.973Z,1.90
2022-11-06T16:39:51.011Z,1.90
2022-11-06T16:45:04.197Z,2.20
2022-11-06T16:50:44.055Z,1.93
2022-11-06T16:55:54.983Z,2.20
2022-11-06T17:01:02.061Z,1.70
2022-11-06T17:06:05.926Z,2.10
2022-11-06T17:11:21.876Z,2.60
2022-11-06T17:16:28.628Z,2.77
2022-11-06T17:21:31.586Z,2.50
2022-11-06T17:26:35.222Z,2.53
2022-11-06T17:31:40.064Z,2.00
2022-11-06T17:36:44.004Z,2.00
2022-11-06T17:41:47.202Z,2.50
2022-11-06T17:46:52.987Z,2.27
2022-11-06T17:52:00.403Z,2.30
2022-11-06T17:57:05.968Z,1.83
2022-11-06T18:02:25.437Z,2.43
2022-11-06T18:07:38.386Z,2.00
2022-11-06T18:12:41.635Z,3.13
2022-11-06T18:17:46.349Z,2.57
2022-11-06T18:22:49.455Z,2.70
2022-11-06T18:27:52.705Z,2.33
2022-11-06T18:32:57.325Z,2.33
2022-11-06T18:38:00.523Z,2.50
2022-11-06T18:43:03.680Z,2.60
2022-11-06T18:48:09.508Z,2.80
2022-11-06T18:53:12.720Z,2.83
2022-11-06T18:58:16.089Z,3.07
2022-11-06T19:03:20.891Z,3.80
2022-11-06T19:08:24.308Z,3.43
2022-11-06T19:13:27.548Z,3.73
2022-11-06T19:18:34.836Z,3.20
2022-11-06T19:23:38.599Z,3.40
2022-11-06T19:28:42.130Z,3.07
2022-11-06T19:33:47.103Z,3.43
2022-11-06T19:38:50.139Z,3.87
2022-11-06T19:43:53.512Z,3.50
2022-11-06T19:48:57.952Z,3.97
2022-11-06T19:54:01.688Z,3.47
2022-11-06T19:59:05.294Z,3.13
2022-11-06T20:04:10.148Z,4.03
2022-11-06T20:09:13.231Z,4.00
2022-11-06T20:14:21.852Z,3.70
2022-11-06T20:19:26.393Z,3.60
2022-11-06T20:24:29.939Z,4.00
2022-11-06T20:29:33.370Z,4.03
2022-11-06T20:34:38.234Z,3.73
2022-11-06T20:39:52.250Z,3.60
2022-11-06T20:44:55.782Z,3.23
2022-11-06T20:50:00.580Z,3.33
2022-11-06T20:55:03.738Z,3.20
2022-11-06T21:00:07.867Z,3.10
2022-11-06T21:05:14.905Z,3.43
2022-11-06T21:10:18.398Z,3.63
2022-11-06T21:15:21.632Z,2.90
2022-11-06T21:20:26.242Z,2.60
2022-11-06T21:25:29.356Z,3.33
2022-11-06T21:30:32.464Z,3.17
2022-11-06T21:35:37.674Z,2.90
2022-11-06T21:40:41.237Z,2.83
2022-11-06T21:45:44.267Z,4.50
2022-11-06T21:50:48.723Z,3.33
2022-11-06T21:56:00.851Z,2.80
2022-11-06T22:01:04.942Z,3.27
2022-11-06T22:06:12.016Z,3.13
2022-11-06T22:11:17.312Z,3.37
2022-11-06T22:16:22.876Z,3.03
2022-11-06T22:21:29.711Z,3.70
2022-11-06T22:26:34.630Z,2.83
2022-11-06T22:31:38.081Z,3.93
2022-11-06T22:36:43.031Z,3.40
2022-11-06T22:41:46.730Z,3.00
2022-11-06T22:46:50.149Z,3.13
2022-11-06T22:51:54.795Z,2.87
2022-11-06T22:56:58.169Z,3.27
2022-11-06T23:02:01.272Z,2.90
2022-11-06T23:07:06.089Z,3.00
2022-11-06T23:12:09.589Z,3.10
2022-11-06T23:17:12.917Z,3.80
2022-11-06T23:22:40.282Z,2.70
2022-11-06T23:27:49.477Z,2.60
2022-11-06T23:32:53.343Z,2.67
2022-11-06T23:37:58.012Z,2.70
2022-11-06T23:43:01.247Z,2.40
2022-11-06T23:48:08.483Z,2.40
2022-11-06T23:53:13.680Z,2.40
2022-11-06T23:58:16.973Z,2.90
